createdAt,value
2018-02-09T00:00:41.644Z,42.93
2018-02-09T00:03:11.724Z,41.53
2018-02-09T00:05:42.236Z,40.03
2018-02-09T00:08:12.701Z,39.70
2018-02-09T00:10:42.514Z,37.50
2018-02-09T00:13:12.562Z,34.93
2018-02-09T00:15:43.139Z,33.17
2018-02-09T00:18:13.313Z,31.23
2018-02-09T00:20:43.995Z,30.73
2018-02-09T00:23:14.547Z,28.57
2018-02-09T00:25:45.127Z,29.50
2018-02-09T00:28:15.507Z,31.63
2018-02-09T00:30:46.107Z,34.13
2018-02-09T00:33:16.441Z,34.63
2018-02-09T00:35:46.206Z,33.63
2018-02-09T00:38:16.186Z,31.93
2018-02-09T00:40:46.150Z,32.13
2018-02-09T00:43:16.543Z,28.63
2018-02-09T00:45:46.930Z,27.00
2018-02-09T00:48:17.203Z,23.97
2018-02-09T00:50:47.628Z,24.67
2018-02-09T00:53:17.550Z,25.00
2018-02-09T00:55:48.070Z,24.23
2018-02-09T00:58:18.454Z,24.97
2018-02-09T01:00:48.457Z,26.10
2018-02-09T01:03:18.806Z,26.37
2018-02-09T01:05:49.144Z,27.93
2018-02-09T01:08:19.396Z,25.67
2018-02-09T01:10:49.738Z,27.57
2018-02-09T01:13:20.317Z,32.00
2018-02-09T01:15:50.711Z,25.60
2018-02-09T01:18:21.451Z,21.73
2018-02-09T01:20:51.428Z,23.73
2018-02-09T01:23:21.846Z,23.30
2018-02-09T01:25:52.152Z,21.87
2018-02-09T01:28:22.396Z,21.13
2018-02-09T01:30:52.244Z,24.90
2018-02-09T01:33:22.689Z,21.63
2018-02-09T01:35:53.212Z,20.67
2018-02-09T01:38:23.431Z,21.13
2018-02-09T01:40:53.884Z,18.93
2018-02-09T01:43:24.616Z,16.47
2018-02-09T01:45:55.248Z,15.70
2018-02-09T01:48:25.148Z,13.47
2018-02-09T01:50:55.588Z,13.37
2018-02-09T01:53:26.394Z,11.73
2018-02-09T01:55:56.736Z,11.23
2018-02-09T01:58:27.364Z,11.57
2018-02-09T02:00:57.897Z,10.50
2018-02-09T02:03:27.712Z,11.80
2018-02-09T02:05:58.106Z,11.43
2018-02-09T02:08:28.788Z,11.07
2018-02-09T02:10:59.273Z,11.47
2018-02-09T02:13:29.791Z,11.30
2018-02-09T02:15:59.748Z,11.50
2018-02-09T02:18:30.465Z,10.40
2018-02-09T02:21:00.995Z,9.90
2018-02-09T02:23:30.968Z,11.00
2018-02-09T02:26:01.376Z,10.47
2018-02-09T02:28:32.193Z,10.43
2018-02-09T02:31:02.720Z,10.60
2018-02-09T02:33:33.398Z,10.40
2018-02-09T02:36:03.797Z,9.83
2018-02-09T02:38:34.155Z,9.60
2018-02-09T02:41:04.926Z,10.83
2018-02-09T02:43:35.395Z,10.67
2018-02-09T02:46:06.296Z,11.47
2018-02-09T02:48:36.445Z,10.10
2018-02-09T02:51:06.723Z,10.27
2018-02-09T02:53:36.946Z,9.63
2018-02-09T02:56:07.410Z,10.47
2018-02-09T02:58:38.378Z,10.60
2018-02-09T03:01:08.819Z,10.43
2018-02-09T03:03:39.272Z,9.97
2018-02-09T03:06:09.539Z,10.57
2018-02-09T03:08:40.233Z,10.67
2018-02-09T03:11:10.981Z,10.50
2018-02-09T03:13:41.316Z,11.00
2018-02-09T03:16:11.137Z,10.03
2018-02-09T03:18:40.903Z,10.40
2018-02-09T03:21:11.020Z,10.10
2018-02-09T03:23:41.329Z,12.40
2018-02-09T03:26:11.552Z,10.50
2018-02-09T03:28:41.463Z,10.67
2018-02-09T03:31:11.879Z,9.80
2018-02-09T03:33:42.150Z,10.10
2018-02-09T03:36:12.627Z,10.43
2018-02-09T03:38:42.876Z,10.83
2018-02-09T03:41:13.269Z,10.73
2018-02-09T03:43:43.804Z,10.93
2018-02-09T03:46:14.489Z,11.13
2018-02-09T03:48:44.974Z,10.83
2018-02-09T03:51:15.258Z,10.47
2018-02-09T03:53:45.246Z,11.50
2018-02-09T03:56:15.834Z,9.83
2018-02-09T03:58:46.215Z,8.90
2018-02-09T04:01:16.541Z,8.53
2018-02-09T04:03:46.739Z,8.10
2018-02-09T04:06:18.073Z,8.53
2018-02-09T04:08:47.847Z,8.50
2018-02-09T04:11:18.234Z,7.70
2018-02-09T04:13:48.707Z,8.13
2018-02-09T04:16:18.485Z,8.93
2018-02-09T04:18:48.750Z,9.03
2018-02-09T04:21:19.220Z,10.93
2018-02-09T04:23:48.966Z,10.07
2018-02-09T04:26:19.404Z,9.33
2018-02-09T04:28:49.705Z,10.43
2018-02-09T04:31:20.219Z,9.23
2018-02-09T04:33:50.696Z,9.20
2018-02-09T04:36:21.339Z,8.33
2018-02-09T04:38:51.936Z,9.47
2018-02-09T04:41:23.238Z,10.30
2018-02-09T04:43:54.041Z,10.00
2018-02-09T04:46:24.522Z,9.47
2018-02-09T04:48:54.811Z,10.57
2018-02-09T04:51:25.037Z,7.30
2018-02-09T04:53:55.587Z,10.30
2018-02-09T04:56:26.082Z,10.03
2018-02-09T04:58:56.474Z,10.23
2018-02-09T05:01:26.238Z,10.00
2018-02-09T05:03:55.919Z,10.37
2018-02-09T05:06:25.626Z,9.13
2018-02-09T05:08:55.369Z,7.30
2018-02-09T05:11:25.199Z,8.83
2018-02-09T05:13:54.977Z,7.13
2018-02-09T05:16:24.746Z,7.33
2018-02-09T05:18:54.526Z,7.73
2018-02-09T05:21:24.268Z,8.83
2018-02-09T05:23:53.976Z,8.10
2018-02-09T05:26:23.665Z,8.20
2018-02-09T05:28:53.419Z,8.10
2018-02-09T05:31:23.146Z,8.77
2018-02-09T05:33:52.887Z,7.97
2018-02-09T05:36:22.649Z,7.93
2018-02-09T05:38:52.372Z,8.33
2018-02-09T05:41:22.130Z,8.83
2018-02-09T05:43:51.845Z,8.63
2018-02-09T05:46:21.566Z,7.33
2018-02-09T05:48:51.370Z,8.13
2018-02-09T05:51:21.171Z,8.20
2018-02-09T05:53:50.927Z,7.80
2018-02-09T05:56:20.630Z,7.97
2018-02-09T05:58:50.401Z,8.30
2018-02-09T06:01:20.143Z,7.43
2018-02-09T06:03:49.839Z,7.87
2018-02-09T06:06:19.548Z,7.67
2018-02-09T06:08:52.299Z,8.53
2018-02-09T06:11:21.995Z,8.17
2018-02-09T06:13:51.689Z,7.97
2018-02-09T06:16:21.449Z,9.67
2018-02-09T06:18:51.165Z,10.97
2018-02-09T06:21:20.972Z,10.93
2018-02-09T06:23:50.671Z,10.53
2018-02-09T06:26:20.479Z,10.13
2018-02-09T06:28:50.193Z,10.90
2018-02-09T06:31:19.900Z,10.53
2018-02-09T06:33:49.618Z,11.13
2018-02-09T06:36:19.337Z,9.80
2018-02-09T06:38:49.041Z,9.83
2018-02-09T06:41:18.782Z,7.97
2018-02-09T06:43:48.554Z,9.00
2018-02-09T06:46:18.264Z,8.50
2018-02-09T06:48:48.010Z,9.73
2018-02-09T06:51:17.720Z,10.00
2018-02-09T06:53:47.417Z,9.27
2018-02-09T06:56:17.146Z,9.47
2018-02-09T06:58:46.846Z,8.17
2018-02-09T07:01:16.581Z,9.90
2018-02-09T07:03:46.323Z,10.57
2018-02-09T07:06:16.036Z,10.23
2018-02-09T07:08:45.745Z,8.87
2018-02-09T07:11:15.543Z,7.90
2018-02-09T07:13:45.271Z,10.40
2018-02-09T07:16:15.027Z,8.80
2018-02-09T07:18:44.793Z,8.17
2018-02-09T07:21:14.533Z,8.50
2018-02-09T07:23:44.290Z,10.20
2018-02-09T07:26:14.137Z,7.87
2018-02-09T07:28:43.934Z,9.57
2018-02-09T07:31:13.714Z,8.00
2018-02-09T07:33:43.471Z,7.50
2018-02-09T07:36:13.250Z,7.83
2018-02-09T07:38:43.005Z,7.33
2018-02-09T07:41:12.735Z,5.57
2018-02-09T07:43:42.510Z,7.70
2018-02-09T07:46:12.232Z,8.27
2018-02-09T07:48:42.037Z,6.33
2018-02-09T07:51:11.838Z,4.60
2018-02-09T07:53:41.597Z,5.80
2018-02-09T07:56:11.416Z,4.80
2018-02-09T07:58:41.120Z,6.80
2018-02-09T08:01:10.894Z,5.63
2018-02-09T08:03:40.594Z,4.07
2018-02-09T08:06:10.274Z,6.07
2018-02-09T08:08:40.088Z,5.60
2018-02-09T08:11:09.806Z,6.17
2018-02-09T08:13:39.557Z,4.83
2018-02-09T08:16:09.306Z,4.00
2018-02-09T08:18:39.017Z,4.40
2018-02-09T08:21:08.740Z,4.60
2018-02-09T08:23:38.486Z,5.17
2018-02-09T08:26:08.182Z,6.17
2018-02-09T08:28:37.947Z,4.97
2018-02-09T08:31:07.704Z,4.60
2018-02-09T08:33:37.431Z,4.87
2018-02-09T08:36:07.204Z,5.10
2018-02-09T08:38:36.901Z,4.50
2018-02-09T08:41:06.615Z,5.00
2018-02-09T08:43:36.394Z,4.70
2018-02-09T08:46:06.091Z,5.47
2018-02-09T08:48:35.888Z,4.93
2018-02-09T08:51:05.634Z,6.23
2018-02-09T08:53:35.362Z,4.47
2018-02-09T08:56:05.207Z,5.63
2018-02-09T08:58:34.920Z,4.37
2018-02-09T09:01:04.738Z,5.50
2018-02-09T09:03:34.421Z,4.80
2018-02-09T09:06:04.213Z,4.97
2018-02-09T09:08:33.955Z,3.67
2018-02-09T09:11:03.805Z,3.63
2018-02-09T09:13:33.532Z,3.50
2018-02-09T09:16:03.325Z,3.47
2018-02-09T09:18:33.045Z,2.93
2018-02-09T09:21:02.788Z,3.73
2018-02-09T09:23:32.513Z,3.67
2018-02-09T09:26:02.250Z,3.70
2018-02-09T09:28:32.036Z,4.07
2018-02-09T09:31:01.767Z,3.13
2018-02-09T09:33:31.544Z,3.07
2018-02-09T09:36:01.298Z,3.40
2018-02-09T09:38:31.788Z,2.70
2018-02-09T09:41:01.532Z,2.43
2018-02-09T09:43:31.251Z,2.97
2018-02-09T09:46:01.005Z,3.27
2018-02-09T09:48:30.811Z,2.60
2018-02-09T09:51:00.577Z,2.73
2018-02-09T09:53:30.290Z,3.13
2018-02-09T09:55:59.998Z,3.60
2018-02-09T09:58:29.754Z,4.97
2018-02-09T10:00:59.493Z,4.30
2018-02-09T10:03:29.221Z,5.03
2018-02-09T10:05:58.948Z,5.30
2018-02-09T10:08:28.661Z,3.43
2018-02-09T10:10:58.429Z,2.50
2018-02-09T10:13:28.142Z,2.50
2018-02-09T10:15:57.823Z,2.40
2018-02-09T10:18:27.565Z,2.97
2018-02-09T10:20:57.275Z,2.57
2018-02-09T10:23:26.985Z,1.90
2018-02-09T10:25:56.804Z,3.77
2018-02-09T10:28:26.500Z,3.80
2018-02-09T10:30:56.211Z,3.10
2018-02-09T10:33:25.904Z,3.37
2018-02-09T10:35:55.626Z,2.70
2018-02-09T10:38:25.376Z,3.90
2018-02-09T10:40:55.083Z,1.97
2018-02-09T10:43:24.787Z,2.73
2018-02-09T10:45:54.553Z,2.63
2018-02-09T10:48:24.281Z,2.30
2018-02-09T10:50:54.164Z,2.20
2018-02-09T10:53:23.920Z,2.87
2018-02-09T10:55:53.611Z,1.87
2018-02-09T10:58:23.348Z,2.00
2018-02-09T11:00:58.971Z,1.80
2018-02-09T11:03:28.689Z,2.17
2018-02-09T11:05:58.420Z,2.93
2018-02-09T11:08:28.585Z,2.80
2018-02-09T11:10:58.374Z,2.90
2018-02-09T11:13:33.786Z,3.00
2018-02-09T11:16:03.518Z,1.93
2018-02-09T11:18:33.304Z,1.80
2018-02-09T11:21:03.001Z,2.33
2018-02-09T11:23:32.684Z,2.40
2018-02-09T11:26:02.456Z,2.27
2018-02-09T11:28:32.222Z,1.73
2018-02-09T11:31:01.980Z,1.40
2018-02-09T11:33:31.713Z,1.83
2018-02-09T11:36:01.417Z,2.83
2018-02-09T11:38:31.194Z,1.93
2018-02-09T11:41:00.905Z,3.63
2018-02-09T11:43:30.612Z,2.40
2018-02-09T11:46:00.349Z,2.40
2018-02-09T11:48:30.084Z,2.43
2018-02-09T11:50:59.863Z,2.57
2018-02-09T11:53:29.571Z,2.07
2018-02-09T11:55:59.328Z,2.60
2018-02-09T11:58:29.111Z,2.83
2018-02-09T12:00:58.844Z,2.17
2018-02-09T12:03:28.562Z,2.70
2018-02-09T12:05:58.309Z,2.23
2018-02-09T12:08:28.153Z,2.20
2018-02-09T12:10:57.853Z,2.07
2018-02-09T12:13:27.592Z,1.83
2018-02-09T12:15:57.317Z,2.23
2018-02-09T12:18:27.093Z,2.13
2018-02-09T12:20:56.826Z,1.93
2018-02-09T12:23:26.534Z,1.80
2018-02-09T12:25:56.305Z,1.87
2018-02-09T12:28:26.061Z,1.80
2018-02-09T12:30:55.870Z,2.03
2018-02-09T12:33:25.586Z,2.10
2018-02-09T12:35:55.374Z,2.03
2018-02-09T12:38:25.072Z,2.47
2018-02-09T12:40:55.657Z,2.00
2018-02-09T12:43:25.374Z,1.77
2018-02-09T12:45:55.134Z,2.30
2018-02-09T12:48:24.854Z,2.67
2018-02-09T12:50:54.565Z,2.60
2018-02-09T12:53:24.280Z,1.83
2018-02-09T12:55:54.034Z,2.00
2018-02-09T12:58:23.844Z,2.10
2018-02-09T13:00:53.534Z,1.80
2018-02-09T13:03:23.299Z,2.30
2018-02-09T13:05:53.051Z,2.70
2018-02-09T13:08:22.773Z,2.43
2018-02-09T13:10:52.555Z,1.83
2018-02-09T13:13:22.297Z,2.87
2018-02-09T13:15:52.010Z,2.47
2018-02-09T13:18:33.614Z,2.30
2018-02-09T13:21:03.379Z,2.43
2018-02-09T13:23:44.771Z,2.43
2018-02-09T13:26:14.505Z,1.93
2018-02-09T13:28:55.972Z,3.20
2018-02-09T13:31:25.675Z,3.00
2018-02-09T13:33:55.382Z,2.10
2018-02-09T13:36:36.897Z,2.50
2018-02-09T13:39:06.758Z,2.63
2018-02-09T13:41:36.488Z,3.30
2018-02-09T13:44:06.198Z,2.70
2018-02-09T13:46:36.011Z,3.80
2018-02-09T13:49:05.745Z,2.87
2018-02-09T13:51:35.499Z,1.50
2018-02-09T13:54:05.226Z,2.87
2018-02-09T13:56:34.932Z,2.10
2018-02-09T13:59:04.683Z,2.43
2018-02-09T14:01:34.383Z,2.90
2018-02-09T14:04:04.143Z,3.10
2018-02-09T14:06:33.873Z,3.17
2018-02-09T14:09:03.702Z,3.43
2018-02-09T14:11:33.485Z,3.17
2018-02-09T14:14:03.244Z,2.90
2018-02-09T14:16:32.956Z,3.70
2018-02-09T14:19:02.756Z,2.77
2018-02-09T14:21:32.496Z,2.80
2018-02-09T14:24:02.203Z,2.60
2018-02-09T14:26:31.888Z,3.03
2018-02-09T14:29:01.704Z,2.60
2018-02-09T14:31:31.438Z,2.50
2018-02-09T14:34:01.150Z,2.90
2018-02-09T14:36:30.881Z,3.10
2018-02-09T14:39:00.602Z,2.60
2018-02-09T14:41:30.304Z,2.50
2018-02-09T14:44:00.017Z,2.70
2018-02-09T14:46:29.724Z,2.57
2018-02-09T14:48:59.414Z,3.03
2018-02-09T14:51:29.199Z,3.13
2018-02-09T14:53:58.877Z,3.50
2018-02-09T14:56:28.720Z,2.70
2018-02-09T14:58:58.436Z,3.03
2018-02-09T15:01:28.149Z,3.20
2018-02-09T15:03:57.885Z,2.87
2018-02-09T15:06:27.594Z,3.30
2018-02-09T15:08:57.382Z,3.00
2018-02-09T15:11:27.098Z,3.43
2018-02-09T15:13:56.800Z,3.53
2018-02-09T15:16:26.579Z,3.60
2018-02-09T15:18:56.326Z,3.60
2018-02-09T15:21:26.066Z,3.50
2018-02-09T15:23:55.890Z,3.73
2018-02-09T15:26:25.645Z,3.60
2018-02-09T15:28:55.394Z,3.97
2018-02-09T15:31:25.115Z,3.63
2018-02-09T15:33:54.820Z,3.87
2018-02-09T15:36:24.520Z,4.20
2018-02-09T15:38:54.212Z,4.33
2018-02-09T15:41:23.956Z,3.77
2018-02-09T15:43:53.647Z,4.03
2018-02-09T15:46:23.375Z,4.00
2018-02-09T15:48:53.086Z,3.90
2018-02-09T15:51:22.798Z,4.17
2018-02-09T15:53:52.570Z,4.03
2018-02-09T15:56:22.308Z,3.63
2018-02-09T15:58:52.122Z,4.00
2018-02-09T16:01:21.834Z,4.13
2018-02-09T16:03:52.187Z,4.37
2018-02-09T16:06:21.998Z,4.00
2018-02-09T16:08:51.696Z,3.83
2018-02-09T16:11:21.426Z,3.70
2018-02-09T16:13:51.119Z,4.20
2018-02-09T16:16:20.852Z,4.43
2018-02-09T16:18:50.632Z,4.70
2018-02-09T16:21:20.337Z,4.47
2018-02-09T16:23:50.116Z,4.67
2018-02-09T16:26:19.861Z,4.47
2018-02-09T16:28:49.554Z,4.43
2018-02-09T16:31:19.296Z,4.53
2018-02-09T16:33:49.000Z,5.07
2018-02-09T16:36:18.797Z,4.90
2018-02-09T16:38:48.586Z,4.17
2018-02-09T16:41:18.333Z,5.00
2018-02-09T16:43:48.070Z,5.67
2018-02-09T16:46:17.790Z,5.40
2018-02-09T16:48:47.544Z,5.63
2018-02-09T16:51:17.281Z,4.70
2018-02-09T16:53:47.054Z,5.20
2018-02-09T16:56:16.771Z,5.07
2018-02-09T16:58:46.669Z,5.27
2018-02-09T17:01:16.392Z,5.10
2018-02-09T17:03:46.087Z,5.47
2018-02-09T17:06:15.900Z,5.20
2018-02-09T17:08:45.602Z,6.00
2018-02-09T17:11:15.295Z,4.93
2018-02-09T17:13:44.998Z,4.90
2018-02-09T17:16:14.712Z,6.07
2018-02-09T17:18:44.566Z,5.77
2018-02-09T17:21:14.308Z,6.00
2018-02-09T17:23:44.033Z,5.57
2018-02-09T17:26:13.745Z,5.57
2018-02-09T17:28:43.459Z,5.73
2018-02-09T17:31:13.218Z,5.30
2018-02-09T17:33:42.965Z,5.47
2018-02-09T17:36:12.750Z,5.13
2018-02-09T17:38:42.453Z,6.67
2018-02-09T17:41:12.281Z,14.23
2018-02-09T17:43:42.063Z,22.53
2018-02-09T17:46:11.763Z,21.17
2018-02-09T17:48:41.454Z,18.33
2018-02-09T17:51:11.201Z,15.20
2018-02-09T17:53:41.076Z,15.30
2018-02-09T17:56:10.867Z,13.67
2018-02-09T17:58:40.576Z,12.90
2018-02-09T18:01:10.674Z,13.07
2018-02-09T18:03:40.383Z,12.17
2018-02-09T18:06:10.080Z,12.80
2018-02-09T18:08:39.841Z,11.37
2018-02-09T18:11:09.541Z,11.97
2018-02-09T18:13:39.329Z,11.70
2018-02-09T18:16:09.256Z,11.00
2018-02-09T18:18:38.990Z,11.00
2018-02-09T18:21:08.748Z,11.17
2018-02-09T18:23:38.453Z,11.97
2018-02-09T18:26:08.168Z,11.17
2018-02-09T18:28:37.961Z,13.67
2018-02-09T18:31:07.702Z,14.80
2018-02-09T18:33:37.647Z,16.90
2018-02-09T18:36:07.331Z,16.20
2018-02-09T18:38:37.059Z,16.07
2018-02-09T18:41:06.803Z,18.70
2018-02-09T18:43:36.509Z,17.83
2018-02-09T18:46:06.276Z,17.00
2018-02-09T18:48:35.982Z,18.13
2018-02-09T18:51:05.723Z,17.53
2018-02-09T18:53:35.649Z,19.03
2018-02-09T18:56:05.378Z,19.97
2018-02-09T18:58:35.119Z,20.90
2018-02-09T19:01:04.973Z,22.47
2018-02-09T19:03:34.701Z,22.50
2018-02-09T19:06:04.601Z,24.50
2018-02-09T19:08:34.327Z,24.80
2018-02-09T19:11:04.067Z,26.43
2018-02-09T19:13:33.783Z,26.53
2018-02-09T19:16:03.561Z,22.93
2018-02-09T19:18:33.313Z,21.63
2018-02-09T19:21:03.034Z,20.23
2018-02-09T19:23:32.743Z,17.67
2018-02-09T19:26:02.684Z,16.50
2018-02-09T19:28:32.454Z,17.00
2018-02-09T19:31:02.310Z,17.57
2018-02-09T19:33:32.083Z,17.40
2018-02-09T19:36:01.827Z,18.83
2018-02-09T19:38:31.603Z,19.53
2018-02-09T19:41:01.307Z,19.90
2018-02-09T19:43:31.030Z,21.50
2018-02-09T19:46:00.829Z,20.70
2018-02-09T19:48:30.546Z,18.87
2018-02-09T19:51:00.348Z,22.03
2018-02-09T19:53:30.083Z,20.97
2018-02-09T19:55:59.909Z,20.43
2018-02-09T19:58:29.689Z,20.27
2018-02-09T20:00:59.514Z,20.57
2018-02-09T20:03:29.321Z,21.77
2018-02-09T20:05:59.159Z,21.20
2018-02-09T20:08:28.926Z,18.40
2018-02-09T20:10:58.634Z,20.63
2018-02-09T20:13:28.450Z,17.40
2018-02-09T20:15:58.308Z,21.53
2018-02-09T20:18:28.039Z,20.47
2018-02-09T20:20:57.789Z,20.27
2018-02-09T20:23:27.602Z,19.70
2018-02-09T20:25:57.351Z,21.07
2018-02-09T20:28:27.146Z,21.70
2018-02-09T20:30:56.844Z,19.83
2018-02-09T20:33:26.560Z,20.73
2018-02-09T20:35:56.279Z,20.40
2018-02-09T20:38:26.020Z,21.70
2018-02-09T20:40:55.752Z,23.87
2018-02-09T20:43:25.538Z,27.73
2018-02-09T20:45:55.300Z,24.13
2018-02-09T20:48:25.069Z,24.97
2018-02-09T20:50:54.778Z,24.90
2018-02-09T20:53:24.481Z,24.77
2018-02-09T20:55:54.239Z,23.63
2018-02-09T20:58:23.991Z,23.40
2018-02-09T21:00:53.825Z,21.23
2018-02-09T21:03:23.602Z,20.87
2018-02-09T21:05:53.344Z,19.37
2018-02-09T21:08:23.114Z,19.80
2018-02-09T21:10:52.821Z,21.47
2018-02-09T21:13:22.588Z,20.90
2018-02-09T21:15:53.202Z,21.97
2018-02-09T21:18:23.666Z,22.83
2018-02-09T21:20:54.544Z,22.87
2018-02-09T21:23:24.971Z,22.77
2018-02-09T21:25:55.314Z,23.53
2018-02-09T21:28:25.830Z,23.97
2018-02-09T21:30:56.125Z,24.03
2018-02-09T21:33:26.381Z,22.47
2018-02-09T21:35:56.684Z,24.10
2018-02-09T21:38:27.172Z,24.67
2018-02-09T21:40:57.628Z,23.50
2018-02-09T21:43:27.970Z,22.10
2018-02-09T21:45:58.281Z,23.83
2018-02-09T21:48:28.621Z,22.30
2018-02-09T21:50:59.172Z,22.53
2018-02-09T21:53:29.393Z,23.53
2018-02-09T21:55:59.852Z,22.47
2018-02-09T21:58:30.111Z,22.90
2018-02-09T22:01:00.863Z,23.50
2018-02-09T22:03:31.115Z,22.40
2018-02-09T22:06:01.532Z,23.93
2018-02-09T22:08:31.939Z,22.27
2018-02-09T22:11:02.324Z,22.33
2018-02-09T22:13:32.754Z,22.83
2018-02-09T22:16:03.216Z,23.03
2018-02-09T22:18:33.596Z,22.63
2018-02-09T22:21:03.737Z,21.87
2018-02-09T22:23:34.165Z,23.10
2018-02-09T22:26:04.336Z,23.10
2018-02-09T22:28:34.672Z,21.87
2018-02-09T22:31:05.182Z,20.83
2018-02-09T22:33:35.670Z,21.90
2018-02-09T22:36:05.831Z,22.53
2018-02-09T22:38:35.858Z,23.30
2018-02-09T22:41:06.132Z,22.83
2018-02-09T22:43:36.156Z,22.00
2018-02-09T22:46:06.525Z,24.80
2018-02-09T22:48:36.506Z,25.73
2018-02-09T22:51:06.793Z,24.13
2018-02-09T22:53:37.440Z,23.53
2018-02-09T22:56:08.169Z,23.90
2018-02-09T22:58:38.340Z,22.43
2018-02-09T23:01:08.824Z,24.03
2018-02-09T23:03:38.578Z,24.40
2018-02-09T23:06:09.160Z,24.60
2018-02-09T23:08:39.112Z,25.13
2018-02-09T23:11:09.419Z,24.77
2018-02-09T23:13:40.248Z,24.30
2018-02-09T23:16:10.731Z,23.03
2018-02-09T23:18:40.796Z,23.30
2018-02-09T23:21:10.756Z,21.67
2018-02-09T23:23:40.962Z,21.83
2018-02-09T23:26:11.264Z,22.07
2018-02-09T23:28:41.586Z,22.80
2018-02-09T23:31:12.160Z,22.13
2018-02-09T23:33:42.063Z,22.70
2018-02-09T23:36:12.340Z,21.93
2018-02-09T23:38:42.431Z,21.43
2018-02-09T23:41:12.941Z,22.80
2018-02-09T23:43:43.053Z,22.37
2018-02-09T23:46:12.791Z,23.40
2018-02-09T23:48:43.105Z,23.10
2018-02-09T23:51:13.610Z,23.80
2018-02-09T23:53:43.693Z,22.97
2018-02-09T23:56:14.186Z,22.47
2018-02-09T23:58:44.631Z,23.10
